sensor_id;sensor_type;location;lat;lon;timestamp;pressure;altitude;pressure_sealevel;temperature;humidity
55351;BME280;62194;49.480;10.986;2023-03-25T00:00:06;97508.44;;;8.95;84.69
55351;BME280;62194;49.480;10.986;2023-03-25T00:00:22;97505.38;;;8.96;85.01
55351;BME280;62194;49.480;10.986;2023-03-25T00:00:28;97509.22;;;8.95;84.73
55351;BME280;62194;49.480;10.986;2023-03-25T00:00:34;97510.81;;;8.96;84.45
55351;BME280;62194;49.480;10.986;2023-03-25T00:00:43;97506.88;;;8.94;84.61
55351;BME280;62194;49.480;10.986;2023-03-25T00:00:49;97504.16;;;8.94;84.66
55351;BME280;62194;49.480;10.986;2023-03-25T00:00:58;97507.22;;;8.92;84.84
55351;BME280;62194;49.480;10.986;2023-03-25T00:01:06;97516.16;;;8.93;84.78
55351;BME280;62194;49.480;10.986;2023-03-25T00:01:18;97505.28;;;8.93;84.99
55351;BME280;62194;49.480;10.986;2023-03-25T00:01:23;97506.44;;;8.91;84.99
55351;BME280;62194;49.480;10.986;2023-03-25T00:01:30;97505.66;;;8.91;84.88
55351;BME280;62194;49.480;10.986;2023-03-25T00:01:36;97512.94;;;8.87;85.13
55351;BME280;62194;49.480;10.986;2023-03-25T00:01:42;97498.19;;;8.88;85.65
55351;BME280;62194;49.480;10.986;2023-03-25T00:01:47;97509.06;;;8.88;85.33
55351;BME280;62194;49.480;10.986;2023-03-25T00:01:53;97499.75;;;8.89;85.31
55351;BME280;62194;49.480;10.986;2023-03-25T00:01:58;97513.81;;;8.91;85.34
55351;BME280;62194;49.480;10.986;2023-03-25T00:02:03;97495.38;;;8.84;85.13
55351;BME280;62194;49.480;10.986;2023-03-25T00:02:09;97496.16;;;8.85;85.46
55351;BME280;62194;49.480;10.986;2023-03-25T00:02:16;97509.50;;;8.90;85.51
55351;BME280;62194;49.480;10.986;2023-03-25T00:02:22;97507.91;;;8.89;85.40
55351;BME280;62194;49.480;10.986;2023-03-25T00:02:27;97494.94;;;8.82;85.30
55351;BME280;62194;49.480;10.986;2023-03-25T00:02:34;97504.41;;;8.88;85.41
55351;BME280;62194;49.480;10.986;2023-03-25T00:02:39;97511.78;;;8.88;85.42
55351;BME280;62194;49.480;10.986;2023-03-25T00:02:47;97509.44;;;8.86;85.53
55351;BME280;62194;49.480;10.986;2023-03-25T00:02:53;97511.78;;;8.88;86.01
55351;BME280;62194;49.480;10.986;2023-03-25T00:02:58;97508.63;;;8.86;86.05
55351;BME280;62194;49.480;10.986;2023-03-25T00:03:03;97501.59;;;8.85;85.68
55351;BME280;62194;49.480;10.986;2023-03-25T00:03:09;97499.69;;;8.85;85.68
55351;BME280;62194;49.480;10.986;2023-03-25T00:03:14;97503.63;;;8.88;85.66
55351;BME280;62194;49.480;10.986;2023-03-25T00:03:20;97506.72;;;8.86;85.75
55351;BME280;62194;49.480;10.986;2023-03-25T00:03:29;97507.91;;;8.89;85.94
55351;BME280;62194;49.480;10.986;2023-03-25T00:03:38;97509.84;;;8.88;86.04
55351;BME280;62194;49.480;10.986;2023-03-25T00:03:45;97497.31;;;8.84;85.98
55351;BME280;62194;49.480;10.986;2023-03-25T00:03:54;97508.63;;;8.86;86.04
55351;BME280;62194;49.480;10.986;2023-03-25T00:04:00;97504.69;;;8.83;86.22
55351;BME280;62194;49.480;10.986;2023-03-25T00:04:08;97503.19;;;8.86;86.29
55351;BME280;62194;49.480;10.986;2023-03-25T00:04:13;97503.19;;;8.86;86.10
55351;BME280;62194;49.480;10.986;2023-03-25T00:04:18;97504.31;;;8.85;86.28
55351;BME280;62194;49.480;10.986;2023-03-25T00:04:24;97510.22;;;8.87;86.20
55351;BME280;62194;49.480;10.986;2023-03-25T00:04:31;97509.44;;;8.86;86.40
55351;BME280;62194;49.480;10.986;2023-03-25T00:04:39;97501.59;;;8.85;86.40
55351;BME280;62194;49.480;10.986;2023-03-25T00:04:49;97503.19;;;8.86;86.23
55351;BME280;62194;49.480;10.986;2023-03-25T00:04:54;97502.75;;;8.84;86.54
55351;BME280;62194;49.480;10.986;2023-03-25T00:05:00;97498.81;;;8.81;86.90
55351;BME280;62194;49.480;10.986;2023-03-25T00:05:08;97503.91;;;8.83;86.63
55351;BME280;62194;49.480;10.986;2023-03-25T00:05:16;97502.75;;;8.84;86.93
55351;BME280;62194;49.480;10.986;2023-03-25T00:05:23;97505.81;;;8.82;86.96
55351;BME280;62194;49.480;10.986;2023-03-25T00:05:28;97500.75;;;8.81;87.11
55351;BME280;62194;49.480;10.986;2023-03-25T00:05:33;97504.59;;;8.80;87.11
55351;BME280;62194;49.480;10.986;2023-03-25T00:05:39;97499.97;;;8.80;87.12
55351;BME280;62194;49.480;10.986;2023-03-25T00:05:44;97503.47;;;8.81;87.08
55351;BME280;62194;49.480;10.986;2023-03-25T00:05:50;97501.06;;;8.79;87.13
55351;BME280;62194;49.480;10.986;2023-03-25T00:05:56;97498.63;;;8.74;87.21
55351;BME280;62194;49.480;10.986;2023-03-25T00:06:04;97507.31;;;8.80;87.55
55351;BME280;62194;49.480;10.986;2023-03-25T00:06:11;97497.16;;;8.77;87.90
55351;BME280;62194;49.480;10.986;2023-03-25T00:06:18;97499.41;;;8.75;87.94
55351;BME280;62194;49.480;10.986;2023-03-25T00:06:23;97505.31;;;8.77;87.90
55351;BME280;62194;49.480;10.986;2023-03-25T00:06:29;97494.84;;;8.79;87.83
55351;BME280;62194;49.480;10.986;2023-03-25T00:06:35;97500.28;;;8.79;87.70
55351;BME280;62194;49.480;10.986;2023-03-25T00:06:41;97502.22;;;8.78;87.60
55351;BME280;62194;49.480;10.986;2023-03-25T00:06:46;97501.44;;;8.78;87.68
55351;BME280;62194;49.480;10.986;2023-03-25T00:06:55;97511.16;;;8.79;87.45
55351;BME280;62194;49.480;10.986;2023-03-25T00:07:00;97505.31;;;8.77;87.50
55351;BME280;62194;49.480;10.986;2023-03-25T00:07:06;97501.00;;;8.76;87.35
55351;BME280;62194;49.480;10.986;2023-03-25T00:07:11;97513.47;;;8.77;87.16
55351;BME280;62194;49.480;10.986;2023-03-25T00:07:18;97509.50;;;8.74;87.31
55351;BME280;62194;49.480;10.986;2023-03-25T00:07:24;97495.03;;;8.70;87.24
55351;BME280;62194;49.480;10.986;2023-03-25T00:07:29;97502.50;;;8.73;87.04
55351;BME280;62194;49.480;10.986;2023-03-25T00:07:35;97497.06;;;8.73;86.99
55351;BME280;62194;49.480;10.986;2023-03-25T00:07:42;97499.78;;;8.73;87.27
55351;BME280;62194;49.480;10.986;2023-03-25T00:07:50;97507.13;;;8.73;87.61
55351;BME280;62194;49.480;10.986;2023-03-25T00:07:56;97507.50;;;8.71;87.46
55351;BME280;62194;49.480;10.986;2023-03-25T00:08:01;97509.06;;;8.72;87.58
55351;BME280;62194;49.480;10.986;2023-03-25T00:08:07;97492.66;;;8.68;87.78
55351;BME280;62194;49.480;10.986;2023-03-25T00:08:13;97497.31;;;8.68;87.64
55351;BME280;62194;49.480;10.986;2023-03-25T00:08:18;97504.78;;;8.71;87.79
55351;BME280;62194;49.480;10.986;2023-03-25T00:08:25;97503.63;;;8.72;87.90
55351;BME280;62194;49.480;10.986;2023-03-25T00:08:30;97503.19;;;8.70;87.79
55351;BME280;62194;49.480;10.986;2023-03-25T00:08:36;97505.09;;;8.70;87.83
55351;BME280;62194;49.480;10.986;2023-03-25T00:08:41;97505.56;;;8.72;87.68
55351;BME280;62194;49.480;10.986;2023-03-25T00:08:47;97500.03;;;8.68;87.61
55351;BME280;62194;49.480;10.986;2023-03-25T00:08:53;97509.41;;;8.71;87.85
55351;BME280;62194;49.480;10.986;2023-03-25T00:08:59;97508.63;;;8.70;87.63
55351;BME280;62194;49.480;10.986;2023-03-25T00:09:04;97507.03;;;8.69;87.35
55351;BME280;62194;49.480;10.986;2023-03-25T00:09:10;97505.91;;;8.70;87.27
55351;BME280;62194;49.480;10.986;2023-03-25T00:09:15;97507.41;;;8.67;86.94
55351;BME280;62194;49.480;10.986;2023-03-25T00:09:21;97494.84;;;8.63;86.82
55351;BME280;62194;49.480;10.986;2023-03-25T00:09:26;97508.97;;;8.68;87.22
55351;BME280;62194;49.480;10.986;2023-03-25T00:09:32;97512.84;;;8.67;87.15
55351;BME280;62194;49.480;10.986;2023-03-25T00:09:38;97505.84;;;8.66;87.16
55351;BME280;62194;49.480;10.986;2023-03-25T00:09:43;97504.69;;;8.67;87.27
55351;BME280;62194;49.480;10.986;2023-03-25T00:09:49;97502.31;;;8.66;87.26
55351;BME280;62194;49.480;10.986;2023-03-25T00:09:54;97496.44;;;8.64;87.32
55351;BME280;62194;49.480;10.986;2023-03-25T00:09:59;97510.13;;;8.67;87.24
55351;BME280;62194;49.480;10.986;2023-03-25T00:10:05;97509.75;;;8.69;87.33
55351;BME280;62194;49.480;10.986;2023-03-25T00:10:12;97508.88;;;8.65;87.31
55351;BME280;62194;49.480;10.986;2023-03-25T00:10:18;97512.06;;;8.67;87.61
55351;BME280;62194;49.480;10.986;2023-03-25T00:10:24;97503.91;;;8.67;87.29
55351;BME280;62194;49.480;10.986;2023-03-25T00:10:29;97500.41;;;8.66;87.54
55351;BME280;62194;49.480;10.986;2023-03-25T00:10:35;97507.75;;;8.66;87.78
55351;BME280;62194;49.480;10.986;2023-03-25T00:10:40;97507.41;;;8.67;87.77
55351;BME280;62194;49.480;10.986;2023-03-25T00:10:56;97497.94;;;8.61;87.53
55351;BME280;62194;49.480;10.986;2023-03-25T00:11:03;97499.16;;;8.64;87.04
55351;BME280;62194;49.480;10.986;2023-03-25T00:11:08;97494.34;;;8.57;87.20
55351;BME280;62194;49.480;10.986;2023-03-25T00:11:14;97503.44;;;8.65;87.03
55351;BME280;62194;49.480;10.986;2023-03-25T00:11:19;97496.44;;;8.64;86.84
55351;BME280;62194;49.480;10.986;2023-03-25T00:11:25;97496.78;;;8.62;87.16
55351;BME280;62194;49.480;10.986;2023-03-25T00:11:31;97503.44;;;8.65;87.04
55351;BME280;62194;49.480;10.986;2023-03-25T00:11:36;97506.94;;;8.65;87.11
55351;BME280;62194;49.480;10.986;2023-03-25T00:11:41;97497.56;;;8.63;87.20
55351;BME280;62194;49.480;10.986;2023-03-25T00:11:49;97499.16;;;8.64;87.13
55351;BME280;62194;49.480;10.986;2023-03-25T00:11:55;97501.19;;;8.67;87.29
55351;BME280;62194;49.480;10.986;2023-03-25T00:12:00;97501.50;;;8.65;87.45
55351;BME280;62194;49.480;10.986;2023-03-25T00:12:05;97500.41;;;8.66;87.38
55351;BME280;62194;49.480;10.986;2023-03-25T00:12:11;97497.56;;;8.63;87.37
55351;BME280;62194;49.480;10.986;2023-03-25T00:12:16;97499.16;;;8.64;87.42
55351;BME280;62194;49.480;10.986;2023-03-25T00:12:21;97497.22;;;8.64;87.65
55351;BME280;62194;49.480;10.986;2023-03-25T00:12:27;97498.47;;;8.67;87.80
55351;BME280;62194;49.480;10.986;2023-03-25T00:12:32;97498.09;;;8.68;87.73
55351;BME280;62194;49.480;10.986;2023-03-25T00:12:37;97500.03;;;8.68;87.83
55351;BME280;62194;49.480;10.986;2023-03-25T00:12:43;97494.59;;;8.68;87.96
55351;BME280;62194;49.480;10.986;2023-03-25T00:12:50;97497.31;;;8.68;87.87
55351;BME280;62194;49.480;10.986;2023-03-25T00:12:55;97494.59;;;8.68;88.06
55351;BME280;62194;49.480;10.986;2023-03-25T00:13:02;97496.53;;;8.67;88.13
55351;BME280;62194;49.480;10.986;2023-03-25T00:13:09;97493.44;;;8.69;88.49
55351;BME280;62194;49.480;10.986;2023-03-25T00:13:17;97494.59;;;8.68;88.32
55351;BME280;62194;49.480;10.986;2023-03-25T00:13:25;97502.38;;;8.70;88.33
55351;BME280;62194;49.480;10.986;2023-03-25T00:13:30;97484.34;;;8.61;88.26
55351;BME280;62194;49.480;10.986;2023-03-25T00:13:36;97493.44;;;8.69;88.22
55351;BME280;62194;49.480;10.986;2023-03-25T00:13:41;97483.97;;;8.63;88.09
55351;BME280;62194;49.480;10.986;2023-03-25T00:13:47;97497.31;;;8.68;88.18
55351;BME280;62194;49.480;10.986;2023-03-25T00:13:52;97485.91;;;8.62;87.63
55351;BME280;62194;49.480;10.986;2023-03-25T00:13:58;97498.47;;;8.67;87.75
55351;BME280;62194;49.480;10.986;2023-03-25T00:14:04;97497.31;;;8.68;87.65
55351;BME280;62194;49.480;10.986;2023-03-25T00:14:09;97494.97;;;8.66;87.87
55351;BME280;62194;49.480;10.986;2023-03-25T00:14:16;97495.38;;;8.68;88.07
55351;BME280;62194;49.480;10.986;2023-03-25T00:14:21;97501.25;;;8.71;87.89
55351;BME280;62194;49.480;10.986;2023-03-25T00:14:29;97494.59;;;8.68;88.32
55351;BME280;62194;49.480;10.986;2023-03-25T00:14:36;97500.03;;;8.68;88.15
55351;BME280;62194;49.480;10.986;2023-03-25T00:14:43;97496.53;;;8.67;88.52
55351;BME280;62194;49.480;10.986;2023-03-25T00:14:58;97492.25;;;8.66;88.35
55351;BME280;62194;49.480;10.986;2023-03-25T00:15:05;97492.25;;;8.66;88.33
55351;BME280;62194;49.480;10.986;2023-03-25T00:15:11;97492.56;;;8.65;88.37
55351;BME280;62194;49.480;10.986;2023-03-25T00:15:17;97500.81;;;8.68;88.37
55351;BME280;62194;49.480;10.986;2023-03-25T00:15:22;97499.25;;;8.67;88.41
55351;BME280;62194;49.480;10.986;2023-03-25T00:15:27;97493.38;;;8.65;88.33
55351;BME280;62194;49.480;10.986;2023-03-25T00:15:34;97494.16;;;8.66;88.55
55351;BME280;62194;49.480;10.986;2023-03-25T00:15:42;97502.31;;;8.66;88.73
55351;BME280;62194;49.480;10.986;2023-03-25T00:15:52;97496.09;;;8.65;88.53
55351;BME280;62194;49.480;10.986;2023-03-25T00:16:02;97489.53;;;8.66;88.59
55351;BME280;62194;49.480;10.986;2023-03-25T00:16:08;97483.09;;;8.59;88.74
55351;BME280;62194;49.480;10.986;2023-03-25T00:16:15;97492.56;;;8.65;88.50
55351;BME280;62194;49.480;10.986;2023-03-25T00:16:20;97489.41;;;8.63;88.30
55351;BME280;62194;49.480;10.986;2023-03-25T00:16:25;97488.53;;;8.59;88.20
55351;BME280;62194;49.480;10.986;2023-03-25T00:16:31;97506.16;;;8.65;87.96
55351;BME280;62194;49.480;10.986;2023-03-25T00:16:37;97494.84;;;8.63;87.99
55351;BME280;62194;49.480;10.986;2023-03-25T00:16:46;97500.03;;;8.68;88.63
55351;BME280;62194;49.480;10.986;2023-03-25T00:16:55;97491.19;;;8.71;88.28
55351;BME280;62194;49.480;10.986;2023-03-25T00:17:03;97494.69;;;8.72;87.97
55351;BME280;62194;49.480;10.986;2023-03-25T00:17:11;97486.53;;;8.72;88.13
55351;BME280;62194;49.480;10.986;2023-03-25T00:17:22;97488.91;;;8.73;88.00
55351;BME280;62194;49.480;10.986;2023-03-25T00:17:27;97497.41;;;8.72;87.99
55351;BME280;62194;49.480;10.986;2023-03-25T00:17:35;97492.75;;;8.72;88.09
55351;BME280;62194;49.480;10.986;2023-03-25T00:17:40;97487.69;;;8.71;88.12
55351;BME280;62194;49.480;10.986;2023-03-25T00:17:46;97489.25;;;8.72;88.24
55351;BME280;62194;49.480;10.986;2023-03-25T00:17:51;97495.84;;;8.71;88.17
55351;BME280;62194;49.480;10.986;2023-03-25T00:17:56;97491.19;;;8.71;88.57
55351;BME280;62194;49.480;10.986;2023-03-25T00:18:02;97502.06;;;8.71;89.11
55351;BME280;62194;49.480;10.986;2023-03-25T00:18:11;97489.16;;;8.68;88.95
55351;BME280;62194;49.480;10.986;2023-03-25T00:18:17;97482.56;;;8.69;88.97
55351;BME280;62194;49.480;10.986;2023-03-25T00:18:25;97498.97;;;8.73;88.87
55351;BME280;62194;49.480;10.986;2023-03-25T00:18:33;97491.50;;;8.70;89.26
55351;BME280;62194;49.480;10.986;2023-03-25T00:18:38;97490.47;;;8.74;90.97
55351;BME280;62194;49.480;10.986;2023-03-25T00:18:44;97490.47;;;8.74;91.78
55351;BME280;62194;49.480;10.986;2023-03-25T00:18:51;97485.03;;;8.74;92.44
55351;BME280;62194;49.480;10.986;2023-03-25T00:18:57;97488.91;;;8.73;91.85
55351;BME280;62194;49.480;10.986;2023-03-25T00:19:04;97490.13;;;8.76;90.38
55351;BME280;62194;49.480;10.986;2023-03-25T00:19:10;97495.22;;;8.77;89.49
55351;BME280;62194;49.480;10.986;2023-03-25T00:19:19;97494.94;;;8.82;88.50
55351;BME280;62194;49.480;10.986;2023-03-25T00:19:27;97489.50;;;8.82;87.61
55351;BME280;62194;49.480;10.986;2023-03-25T00:19:33;97494.94;;;8.82;87.35
55351;BME280;62194;49.480;10.986;2023-03-25T00:19:41;97491.88;;;8.84;87.03
55351;BME280;62194;49.480;10.986;2023-03-25T00:19:49;97485.28;;;8.85;87.22
55351;BME280;62194;49.480;10.986;2023-03-25T00:19:56;97491.97;;;8.87;87.04
55351;BME280;62194;49.480;10.986;2023-03-25T00:20:07;97491.19;;;8.87;86.97
55351;BME280;62194;49.480;10.986;2023-03-25T00:20:13;97486.44;;;8.84;86.96
55351;BME280;62194;49.480;10.986;2023-03-25T00:20:19;97495.38;;;8.84;87.13
55351;BME280;62194;49.480;10.986;2023-03-25T00:20:25;97489.16;;;8.84;87.17
55351;BME280;62194;49.480;10.986;2023-03-25T00:20:31;97487.94;;;8.81;87.16
55351;BME280;62194;49.480;10.986;2023-03-25T00:20:37;97485.28;;;8.85;87.17
55351;BME280;62194;49.480;10.986;2023-03-25T00:20:46;97494.69;;;8.87;87.26
55351;BME280;62194;49.480;10.986;2023-03-25T00:20:54;97488.47;;;8.87;87.18
55351;BME280;62194;49.480;10.986;2023-03-25T00:21:02;97498.09;;;8.84;86.99
55351;BME280;62194;49.480;10.986;2023-03-25T00:21:14;97496.97;;;8.85;87.15
55351;BME280;62194;49.480;10.986;2023-03-25T00:21:20;97490.31;;;8.83;87.03
55351;BME280;62194;49.480;10.986;2023-03-25T00:21:25;97500.03;;;8.84;87.26
55351;BME280;62194;49.480;10.986;2023-03-25T00:21:30;97496.09;;;8.81;87.21
55351;BME280;62194;49.480;10.986;2023-03-25T00:21:37;97492.22;;;8.82;87.59
55351;BME280;62194;49.480;10.986;2023-03-25T00:21:43;97494.53;;;8.80;87.67
55351;BME280;62194;49.480;10.986;2023-03-25T00:21:49;97496.78;;;8.78;87.46
55351;BME280;62194;49.480;10.986;2023-03-25T00:21:56;97489.34;;;8.75;86.93
55351;BME280;62194;49.480;10.986;2023-03-25T00:22:02;97489.78;;;8.77;86.74
55351;BME280;62194;49.480;10.986;2023-03-25T00:22:07;97490.56;;;8.78;86.89
55351;BME280;62194;49.480;10.986;2023-03-25T00:22:12;97492.50;;;8.77;86.98
55351;BME280;62194;49.480;10.986;2023-03-25T00:22:18;97489.00;;;8.77;87.07
55351;BME280;62194;49.480;10.986;2023-03-25T00:22:23;97488.91;;;8.73;86.86
55351;BME280;62194;49.480;10.986;2023-03-25T00:22:28;97491.25;;;8.75;86.89
55351;BME280;62194;49.480;10.986;2023-03-25T00:22:34;97490.47;;;8.74;86.76
55351;BME280;62194;49.480;10.986;2023-03-25T00:22:44;97488.91;;;8.73;86.93
55351;BME280;62194;49.480;10.986;2023-03-25T00:22:49;97483.81;;;8.72;87.09
55351;BME280;62194;49.480;10.986;2023-03-25T00:22:55;97486.97;;;8.74;86.98
55351;BME280;62194;49.480;10.986;2023-03-25T00:23:00;97484.97;;;8.71;86.98
55351;BME280;62194;49.480;10.986;2023-03-25T00:23:06;97488.91;;;8.73;87.19
55351;BME280;62194;49.480;10.986;2023-03-25T00:23:12;97496.69;;;8.75;87.22
55351;BME280;62194;49.480;10.986;2023-03-25T00:23:19;97490.81;;;8.73;87.43
55351;BME280;62194;49.480;10.986;2023-03-25T00:23:26;97492.41;;;8.74;87.09
55351;BME280;62194;49.480;10.986;2023-03-25T00:23:35;97491.97;;;8.72;86.83
55351;BME280;62194;49.480;10.986;2023-03-25T00:23:41;97495.91;;;8.74;87.08
55351;BME280;62194;49.480;10.986;2023-03-25T00:23:46;97490.81;;;8.73;87.08
55351;BME280;62194;49.480;10.986;2023-03-25T00:23:51;97491.63;;;8.73;86.97
55351;BME280;62194;49.480;10.986;2023-03-25T00:23:57;97490.81;;;8.73;87.13
55351;BME280;62194;49.480;10.986;2023-03-25T00:24:02;97490.72;;;8.69;86.91
55351;BME280;62194;49.480;10.986;2023-03-25T00:24:07;97494.34;;;8.73;87.69
55351;BME280;62194;49.480;10.986;2023-03-25T00:24:13;97491.63;;;8.73;88.14
55351;BME280;62194;49.480;10.986;2023-03-25T00:24:21;97494.34;;;8.73;87.92
55351;BME280;62194;49.480;10.986;2023-03-25T00:24:27;97482.66;;;8.73;87.89
55351;BME280;62194;49.480;10.986;2023-03-25T00:24:32;97490.03;;;8.72;87.78
55351;BME280;62194;49.480;10.986;2023-03-25T00:24:37;97486.53;;;8.72;88.01
55351;BME280;62194;49.480;10.986;2023-03-25T00:24:43;97490.03;;;8.72;88.96
55351;BME280;62194;49.480;10.986;2023-03-25T00:24:48;97491.25;;;8.75;89.44
55351;BME280;62194;49.480;10.986;2023-03-25T00:24:54;97484.25;;;8.74;89.40
55351;BME280;62194;49.480;10.986;2023-03-25T00:24:59;97492.75;;;8.72;88.91
55351;BME280;62194;49.480;10.986;2023-03-25T00:25:07;97493.91;;;8.71;88.70
55351;BME280;62194;49.480;10.986;2023-03-25T00:25:13;97488.91;;;8.73;88.65
55351;BME280;62194;49.480;10.986;2023-03-25T00:25:21;97492.41;;;8.74;88.63
55351;BME280;62194;49.480;10.986;2023-03-25T00:25:26;97484.97;;;8.71;88.57
55351;BME280;62194;49.480;10.986;2023-03-25T00:25:32;97486.19;;;8.73;88.38
55351;BME280;62194;49.480;10.986;2023-03-25T00:25:37;97487.75;;;8.74;88.37
55351;BME280;62194;49.480;10.986;2023-03-25T00:25:42;97486.19;;;8.73;88.48
55351;BME280;62194;49.480;10.986;2023-03-25T00:25:49;97490.81;;;8.73;88.28
55351;BME280;62194;49.480;10.986;2023-03-25T00:25:57;97488.19;;;8.76;88.25
55351;BME280;62194;49.480;10.986;2023-03-25T00:26:05;97482.66;;;8.73;88.28
55351;BME280;62194;49.480;10.986;2023-03-25T00:26:13;97489.69;;;8.74;88.32
55351;BME280;62194;49.480;10.986;2023-03-25T00:26:18;97492.06;;;8.75;88.34
55351;BME280;62194;49.480;10.986;2023-03-25T00:26:23;97492.06;;;8.75;88.18
55351;BME280;62194;49.480;10.986;2023-03-25T00:26:28;97484.59;;;8.72;88.26
55351;BME280;62194;49.480;10.986;2023-03-25T00:26:36;97485.81;;;8.75;88.15
55351;BME280;62194;49.480;10.986;2023-03-25T00:26:46;97494.78;;;8.75;88.52
55351;BME280;62194;49.480;10.986;2023-03-25T00:26:52;97491.72;;;8.77;88.42
55351;BME280;62194;49.480;10.986;2023-03-25T00:26:58;97486.28;;;8.77;88.44
55351;BME280;62194;49.480;10.986;2023-03-25T00:27:03;97489.78;;;8.77;88.48
55351;BME280;62194;49.480;10.986;2023-03-25T00:27:08;97490.56;;;8.78;88.27
55351;BME280;62194;49.480;10.986;2023-03-25T00:27:14;97488.28;;;8.80;88.49
55351;BME280;62194;49.480;10.986;2023-03-25T00:27:21;97489.09;;;8.80;88.75
55351;BME280;62194;49.480;10.986;2023-03-25T00:27:26;97486.69;;;8.79;88.68
55351;BME280;62194;49.480;10.986;2023-03-25T00:27:32;97485.13;;;8.78;88.42
55351;BME280;62194;49.480;10.986;2023-03-25T00:27:37;97488.28;;;8.80;88.13
55351;BME280;62194;49.480;10.986;2023-03-25T00:27:42;97482.75;;;8.76;87.80
55351;BME280;62194;49.480;10.986;2023-03-25T00:27:50;97474.25;;;8.78;88.57
55351;BME280;62194;49.480;10.986;2023-03-25T00:27:55;97486.00;;;8.82;88.87
55351;BME280;62194;49.480;10.986;2023-03-25T00:28:00;97479.78;;;8.81;88.76
55351;BME280;62194;49.480;10.986;2023-03-25T00:28:06;97484.44;;;8.81;88.31
55351;BME280;62194;49.480;10.986;2023-03-25T00:28:13;97488.81;;;8.85;88.14
55351;BME280;62194;49.480;10.986;2023-03-25T00:28:19;97481.44;;;8.86;88.37
55351;BME280;62194;49.480;10.986;2023-03-25T00:28:27;97486.09;;;8.85;88.43
55351;BME280;62194;49.480;10.986;2023-03-25T00:28:34;97486.09;;;8.85;88.21
55351;BME280;62194;49.480;10.986;2023-03-25T00:28:40;97481.78;;;8.84;88.03
55351;BME280;62194;49.480;10.986;2023-03-25T00:28:46;97486.88;;;8.86;87.94
55351;BME280;62194;49.480;10.986;2023-03-25T00:28:51;97474.44;;;8.85;87.87
55351;BME280;62194;49.480;10.986;2023-03-25T00:28:56;97482.31;;;8.90;88.07
55351;BME280;62194;49.480;10.986;2023-03-25T00:29:01;97482.75;;;8.92;87.94
55351;BME280;62194;49.480;10.986;2023-03-25T00:29:08;97483.63;;;8.96;87.79
55351;BME280;62194;49.480;10.986;2023-03-25T00:29:14;97483.28;;;8.98;87.34
55351;BME280;62194;49.480;10.986;2023-03-25T00:29:20;97479.78;;;8.97;86.69
55351;BME280;62194;49.480;10.986;2023-03-25T00:29:25;97476.97;;;8.94;86.62
55351;BME280;62194;49.480;10.986;2023-03-25T00:29:31;97483.19;;;8.94;86.84
55351;BME280;62194;49.480;10.986;2023-03-25T00:29:36;97487.94;;;8.97;87.06
55351;BME280;62194;49.480;10.986;2023-03-25T00:29:42;97482.94;;;8.99;86.84
55351;BME280;62194;49.480;10.986;2023-03-25T00:29:47;97482.56;;;9.01;87.07
55351;BME280;62194;49.480;10.986;2023-03-25T00:29:53;97475.97;;;9.02;86.99
55351;BME280;62194;49.480;10.986;2023-03-25T00:29:58;97479.41;;;8.99;86.71
55351;BME280;62194;49.480;10.986;2023-03-25T00:30:03;97488.78;;;9.01;86.54
55351;BME280;62194;49.480;10.986;2023-03-25T00:30:09;97484.91;;;9.02;86.66
55351;BME280;62194;49.480;10.986;2023-03-25T00:30:17;97486.59;;;9.07;86.50
55351;BME280;62194;49.480;10.986;2023-03-25T00:30:22;97483.88;;;9.07;85.98
55351;BME280;62194;49.480;10.986;2023-03-25T00:30:28;97484.22;;;9.05;85.75
55351;BME280;62194;49.480;10.986;2023-03-25T00:30:33;97484.91;;;9.02;85.63
55351;BME280;62194;49.480;10.986;2023-03-25T00:30:39;97492.75;;;9.04;85.67
55351;BME280;62194;49.480;10.986;2023-03-25T00:30:45;97491.19;;;9.03;85.72
55351;BME280;62194;49.480;10.986;2023-03-25T00:30:50;97495.81;;;9.02;85.67
55351;BME280;62194;49.480;10.986;2023-03-25T00:30:59;97488.78;;;9.01;85.68
55351;BME280;62194;49.480;10.986;2023-03-25T00:31:07;97489.16;;;9.00;87.14
55351;BME280;62194;49.480;10.986;2023-03-25T00:31:15;97484.84;;;8.99;87.28
55351;BME280;62194;49.480;10.986;2023-03-25T00:31:20;97478.19;;;8.96;88.24
55351;BME280;62194;49.480;10.986;2023-03-25T00:31:25;97493.00;;;8.99;87.79
55351;BME280;62194;49.480;10.986;2023-03-25T00:31:31;97489.84;;;8.97;87.55
55351;BME280;62194;49.480;10.986;2023-03-25T00:31:36;97480.09;;;8.96;87.19
55351;BME280;62194;49.480;10.986;2023-03-25T00:31:42;97488.63;;;8.94;87.11
55351;BME280;62194;49.480;10.986;2023-03-25T00:31:47;97485.91;;;8.94;86.96
55351;BME280;62194;49.480;10.986;2023-03-25T00:31:52;97493.28;;;8.94;86.86
55351;BME280;62194;49.480;10.986;2023-03-25T00:31:57;97489.34;;;8.91;86.76
55351;BME280;62194;49.480;10.986;2023-03-25T00:32:03;97489.34;;;8.91;87.10
55351;BME280;62194;49.480;10.986;2023-03-25T00:32:09;97485.03;;;8.90;86.86
55351;BME280;62194;49.480;10.986;2023-03-25T00:32:14;97480.72;;;8.89;87.28
55351;BME280;62194;49.480;10.986;2023-03-25T00:32:20;97483.44;;;8.89;87.40
55351;BME280;62194;49.480;10.986;2023-03-25T00:32:25;97491.25;;;8.90;87.23
55351;BME280;62194;49.480;10.986;2023-03-25T00:32:33;97487.31;;;8.88;87.18
55351;BME280;62194;49.480;10.986;2023-03-25T00:32:39;97483.81;;;8.87;87.54
55351;BME280;62194;49.480;10.986;2023-03-25T00:32:44;97486.97;;;8.89;87.24
55351;BME280;62194;49.480;10.986;2023-03-25T00:32:53;97494.31;;;8.89;87.50
55351;BME280;62194;49.480;10.986;2023-03-25T00:32:58;97489.94;;;8.84;87.65
55351;BME280;62194;49.480;10.986;2023-03-25T00:33:05;97486.88;;;8.86;87.51
55351;BME280;62194;49.480;10.986;2023-03-25T00:33:11;97484.50;;;8.84;87.49
55351;BME280;62194;49.480;10.986;2023-03-25T00:33:17;97481.78;;;8.84;87.56
55351;BME280;62194;49.480;10.986;2023-03-25T00:33:22;97482.94;;;8.83;87.45
55351;BME280;62194;49.480;10.986;2023-03-25T00:33:28;97489.94;;;8.84;87.46
55351;BME280;62194;49.480;10.986;2023-03-25T00:33:34;97491.09;;;8.83;87.26
55351;BME280;62194;49.480;10.986;2023-03-25T00:33:40;97487.22;;;8.84;87.26